Time;durP1;ratioP1;P1;durP2;ratioP2;P2;SDS_P1;SDS_P2;PMS_P1;PMS_P2;Temp;Humidity;BMP_temperature;BMP_pressure;BME280_temperature;BME280_humidity;BME280_pressure;Samples;Min_cycle;Max_cycle;Signal;HPM_P1;HPM_P2
2023/03/31 00:01:33;;;;;;;31.80;19.80;;;;;;;6.06;53.80;100076.64;105682;1252;59561;-44
2023/03/31 00:04:04;;;;;;;17.60;7.60;;;;;;;6.00;53.63;100076.70;105706;1256;64150;-44
2023/03/31 00:06:40;;;;;;;25.70;18.40;;;;;;;5.96;53.54;100070.87;105564;1254;62527;-45
2023/03/31 00:09:14;;;;;;;15.30;8.10;;;;;;;5.94;53.67;100067.16;105627;1254;65240;-45
2023/03/31 00:11:44;;;;;;;14.40;7.80;;;;;;;5.93;53.65;100067.39;105774;1256;59927;-46
2023/03/31 00:14:12;;;;;;;26.70;16.80;;;;;;;5.92;53.54;100066.09;105645;1256;59627;-46
2023/03/31 00:16:41;;;;;;;18.80;7.50;;;;;;;5.89;53.20;100065.41;105681;1256;65654;-45
2023/03/31 00:19:16;;;;;;;20.20;8.90;;;;;;;5.86;53.09;100064.20;105564;1256;61893;-45
2023/03/31 00:21:47;;;;;;;26.00;16.30;;;;;;;5.83;52.98;100067.73;105433;1254;64137;-45
2023/03/31 00:24:17;;;;;;;14.70;6.50;;;;;;;5.79;52.85;100065.86;105634;1254;60816;-46
2023/03/31 00:26:46;;;;;;;25.80;16.00;;;;;;;5.78;52.76;100064.02;105832;1256;59625;-45
2023/03/31 00:29:15;;;;;;;15.80;6.40;;;;;;;5.76;52.79;100062.69;105774;1254;65450;-46
2023/03/31 00:31:43;;;;;;;28.00;16.20;;;;;;;5.75;52.90;100059.52;105707;1254;62600;-45
2023/03/31 00:34:11;;;;;;;16.70;7.20;;;;;;;5.73;53.04;100055.65;105684;1256;64692;-45
2023/03/31 00:36:46;;;;;;;17.20;7.50;;;;;;;5.72;53.07;100056.36;105741;1254;59646;-46
2023/03/31 00:39:17;;;;;;;21.40;14.10;;;;;;;5.72;53.02;100050.83;105571;1254;60221;-45
2023/03/31 00:41:46;;;;;;;28.00;15.80;;;;;;;5.71;53.17;100049.14;105704;1252;65297;-46
2023/03/31 00:44:23;;;;;;;15.20;7.90;;;;;;;5.67;53.26;100049.89;105553;1254;62308;-48
2023/03/31 00:47:11;;;;;;;25.20;16.70;;;;;;;5.67;53.52;100048.01;105483;1255;64202;-45
2023/03/31 00:49:53;;;;;;;15.50;6.20;;;;;;;5.67;53.70;100042.77;105572;1253;60574;-47
2023/03/31 00:52:34;;;;;;;23.10;15.40;;;;;;;5.66;53.73;100041.26;105522;1259;60750;-47
2023/03/31 00:55:09;;;;;;;12.80;6.80;;;;;;;5.66;53.68;100037.82;105636;1256;66182;-45
2023/03/31 00:57:39;;;;;;;16.30;6.70;;;;;;;5.65;53.92;100034.73;105481;1257;62560;-46
2023/03/31 01:00:13;;;;;;;20.70;13.70;;;;;;;5.65;53.94;100033.50;105616;1256;63847;-46
2023/03/31 01:02:50;;;;;;;16.10;6.80;;;;;;;5.66;54.01;100033.63;105490;1256;60447;-47
2023/03/31 01:05:20;;;;;;;12.50;5.50;;;;;;;5.66;54.02;100029.11;105500;1253;60514;-46
2023/03/31 01:07:48;;;;;;;20.20;14.20;;;;;;;5.65;54.13;100027.79;105648;1252;65137;-46
2023/03/31 01:10:17;;;;;;;24.60;16.30;;;;;;;5.64;53.97;100021.25;105366;1254;62708;-46
2023/03/31 01:12:48;;;;;;;13.70;7.20;;;;;;;5.61;54.05;100021.24;105411;1255;65051;-47
2023/03/31 01:15:16;;;;;;;23.60;17.20;;;;;;;5.60;53.94;100016.77;105477;1254;60559;-47
2023/03/31 01:17:46;;;;;;;14.00;7.40;;;;;;;5.62;53.92;100016.69;105731;1253;60440;-47
2023/03/31 01:20:37;;;;;;;30.10;18.00;;;;;;;5.62;54.03;100015.46;105477;1254;65262;-47
2023/03/31 01:23:21;;;;;;;18.00;8.80;;;;;;;5.63;54.05;100014.55;105565;1254;62661;-46
2023/03/31 01:26:30;;;;;;;18.10;9.00;;;;;;;5.63;54.06;100010.73;105566;1254;64717;-47
2023/03/31 01:29:26;;;;;;;26.20;18.50;;;;;;;5.63;53.94;100007.23;105649;1256;60563;-47
2023/03/31 01:32:19;;;;;;;17.10;7.00;;;;;;;5.63;53.73;100007.05;105494;1251;62889;-47
2023/03/31 01:35:33;;;;;;;17.10;8.80;;;;;;;5.63;53.82;100001.30;105613;1257;66359;-48
2023/03/31 01:38:25;;;;;;;20.70;9.60;;;;;;;5.64;54.15;99993.06;105002;1259;62341;-47
2023/03/31 01:41:19;;;;;;;24.80;17.00;;;;;;;5.65;54.26;99988.45;108259;1253;64913;-47
2023/03/31 01:43:57;;;;;;;16.90;8.50;;;;;;;5.66;54.35;99987.88;105485;1254;60465;-47
2023/03/31 01:46:52;;;;;;;16.40;9.10;;;;;;;5.65;54.36;99982.35;105438;1253;60352;-47
2023/03/31 01:49:47;;;;;;;23.60;16.50;;;;;;;5.66;54.52;99981.58;105520;1252;66399;-47
2023/03/31 01:52:18;;;;;;;27.20;18.60;;;;;;;5.68;54.64;99980.77;105914;1254;63036;-46
2023/03/31 01:54:57;;;;;;;18.80;7.60;;;;;;;5.71;54.71;99983.18;109384;1253;65043;-47
2023/03/31 01:57:39;;;;;;;26.60;17.30;;;;;;;5.81;54.62;99983.61;105452;1254;60568;-46
2023/03/31 02:00:10;;;;;;;13.00;5.70;;;;;;;5.95;54.68;99983.39;105582;1252;60578;-46
2023/03/31 02:02:58;;;;;;;25.70;16.60;;;;;;;6.13;54.44;99983.55;105699;1253;65943;-46
2023/03/31 02:05:39;;;;;;;23.90;16.20;;;;;;;6.26;54.20;99983.88;105617;1256;61691;-48
2023/03/31 02:08:11;;;;;;;25.50;16.10;;;;;;;6.37;53.91;99979.69;105646;1257;64989;-46
2023/03/31 02:10:40;;;;;;;29.10;17.60;;;;;;;6.42;53.72;99971.27;105789;1256;60502;-47
2023/03/31 02:13:12;;;;;;;26.70;17.50;;;;;;;6.44;53.66;99965.05;105449;1254;60475;-48
2023/03/31 02:21:07;;;;;;;12.80;5.50;;;;;;;6.42;53.55;99943.58;105557;1257;61684;-47
2023/03/31 02:23:37;;;;;;;23.00;15.60;;;;;;;6.36;53.47;99936.72;105652;1254;73847;-47
2023/03/31 02:26:14;;;;;;;21.30;13.80;;;;;;;6.32;53.68;99936.11;105320;1252;60544;-46
2023/03/31 02:28:44;;;;;;;13.40;6.10;;;;;;;6.28;53.61;99926.99;105233;1254;60574;-46
2023/03/31 02:31:28;;;;;;;13.40;5.90;;;;;;;6.24;53.62;99919.06;105694;1254;65978;-47
2023/03/31 02:33:57;;;;;;;18.90;12.30;;;;;;;6.24;53.60;99913.98;105606;1256;63013;-48
2023/03/31 02:36:26;;;;;;;17.40;11.90;;;;;;;6.21;54.09;99911.30;105342;1258;74050;-47
2023/03/31 02:38:57;;;;;;;18.80;12.60;;;;;;;6.15;54.44;99908.89;105233;1259;60520;-47
2023/03/31 02:41:27;;;;;;;12.20;5.80;;;;;;;6.13;54.81;99911.11;105437;1251;60364;-47
2023/03/31 02:43:56;;;;;;;17.00;11.30;;;;;;;6.13;55.16;99907.10;109278;1251;65205;-47
2023/03/31 02:46:24;;;;;;;12.00;4.60;;;;;;;6.14;55.49;99901.27;109302;1254;62747;-47
2023/03/31 02:48:56;;;;;;;16.50;11.10;;;;;;;6.15;55.76;99893.91;109192;1253;64005;-46
2023/03/31 02:51:30;;;;;;;16.50;10.60;;;;;;;6.16;56.09;99893.14;106108;1254;60485;-47
2023/03/31 02:54:09;;;;;;;16.80;10.30;;;;;;;6.25;56.19;99894.44;109367;1252;58359;-48
2023/03/31 02:57:09;;;;;;;12.50;9.10;;;;;;;6.38;56.36;99895.06;109124;1256;65068;-48
2023/03/31 03:00:07;;;;;;;16.80;10.70;;;;;;;6.53;56.47;99892.31;109242;1254;62730;-48
2023/03/31 03:03:25;;;;;;;17.10;11.30;;;;;;;6.67;56.66;99893.75;109239;1253;64004;-49
2023/03/31 03:06:36;;;;;;;10.20;4.60;;;;;;;6.77;56.51;99897.25;109183;1252;58477;-48
2023/03/31 03:09:25;;;;;;;16.00;10.80;;;;;;;6.79;56.14;99897.58;105369;1253;60476;-47
2023/03/31 03:12:14;;;;;;;14.30;10.20;;;;;;;6.82;55.90;99898.73;105636;1254;66030;-47
2023/03/31 03:14:48;;;;;;;16.40;10.20;;;;;;;6.79;55.94;99899.15;109173;1252;62618;-48
2023/03/31 03:17:47;;;;;;;9.70;4.70;;;;;;;6.78;55.99;99898.90;107681;1251;65370;-47
2023/03/31 03:20:17;;;;;;;14.70;9.50;;;;;;;6.73;55.88;99894.02;105773;1254;60502;-47
2023/03/31 03:22:46;;;;;;;12.80;8.90;;;;;;;6.68;55.81;99888.41;105567;1259;60382;-47
2023/03/31 03:25:16;;;;;;;8.30;3.60;;;;;;;6.65;55.47;99886.36;105462;1253;66141;-48
2023/03/31 03:27:45;;;;;;;13.10;8.80;;;;;;;6.61;55.23;99885.63;105740;1254;62829;-48
2023/03/31 03:30:14;;;;;;;12.10;8.20;;;;;;;6.55;55.18;99891.11;105580;1256;65007;-48
2023/03/31 03:32:45;;;;;;;9.90;4.20;;;;;;;6.50;55.29;99892.67;105685;1254;60558;-48
2023/03/31 03:35:13;;;;;;;13.00;9.00;;;;;;;6.47;55.56;99896.17;105607;1253;60417;-48
2023/03/31 03:37:41;;;;;;;14.40;9.30;;;;;;;6.48;55.66;99896.98;105684;1256;66190;-48
2023/03/31 03:40:10;;;;;;;12.50;8.70;;;;;;;6.49;55.81;99890.48;105631;1254;62607;-48
2023/03/31 03:42:38;;;;;;;16.00;9.90;;;;;;;6.46;56.08;99884.73;105832;1251;65181;-47
2023/03/31 03:45:11;;;;;;;6.40;2.20;;;;;;;6.49;56.41;99882.28;105709;1253;60453;-47
2023/03/31 03:47:39;;;;;;;7.60;3.20;;;;;;;6.57;56.43;99877.55;105665;1252;60443;-48
2023/03/31 03:50:09;;;;;;;12.60;8.30;;;;;;;6.63;56.48;99876.08;105485;1256;66037;-48
2023/03/31 03:52:38;;;;;;;16.80;9.30;;;;;;;6.70;56.63;99878.74;109344;1252;62475;-46
2023/03/31 03:55:07;;;;;;;12.10;4.90;;;;;;;6.78;56.74;99876.94;109341;1252;65094;-47
2023/03/31 03:57:36;;;;;;;12.60;8.80;;;;;;;6.87;56.76;99874.33;109340;1252;59900;-47
2023/03/31 04:00:11;;;;;;;11.50;8.60;;;;;;;6.95;56.56;99875.86;107338;1256;60446;-49
2023/03/31 04:02:40;;;;;;;15.00;9.70;;;;;;;6.98;56.41;99875.13;105676;1254;68721;-48
2023/03/31 04:05:09;;;;;;;17.70;9.70;;;;;;;7.04;56.19;99870.99;109326;1256;62733;-46
2023/03/31 04:07:38;;;;;;;13.20;9.60;;;;;;;7.02;56.09;99872.71;109379;1252;65017;-47
2023/03/31 04:10:08;;;;;;;12.20;8.50;;;;;;;6.98;56.05;99872.33;106943;1256;60546;-48
2023/03/31 04:12:36;;;;;;;15.20;9.80;;;;;;;6.97;56.26;99870.88;105516;1253;60562;-48
2023/03/31 04:15:05;;;;;;;13.80;9.00;;;;;;;6.96;56.30;99867.92;105675;1256;66291;-48
2023/03/31 04:17:35;;;;;;;13.50;9.00;;;;;;;6.96;56.32;99860.42;105611;1254;62868;-49
2023/03/31 04:20:08;;;;;;;15.10;8.90;;;;;;;6.92;56.45;99855.19;105706;1254;65063;-48
2023/03/31 04:22:39;;;;;;;6.60;3.50;;;;;;;6.86;56.57;99850.70;105620;1256;60466;-48
2023/03/31 04:25:16;;;;;;;13.60;9.20;;;;;;;6.80;56.60;99852.58;105575;1257;60440;-47
2023/03/31 04:27:49;;;;;;;14.00;8.80;;;;;;;6.75;56.59;99849.40;105608;1252;65845;-47
2023/03/31 04:30:29;;;;;;;15.50;9.40;;;;;;;6.72;56.56;99848.27;105556;1254;65051;-47
2023/03/31 04:33:00;;;;;;;9.20;4.60;;;;;;;6.68;56.58;99848.55;105679;1254;64980;-47
2023/03/31 04:35:48;;;;;;;11.70;7.80;;;;;;;6.66;56.54;99842.95;105630;1253;60437;-47
2023/03/31 04:38:19;;;;;;;13.10;7.60;;;;;;;6.63;56.54;99840.88;105709;1254;60457;-47
2023/03/31 04:40:51;;;;;;;12.30;7.40;;;;;;;6.68;56.36;99836.29;105637;1254;66290;-47
2023/03/31 04:43:21;;;;;;;8.60;2.60;;;;;;;6.76;55.93;99832.64;105852;1256;62704;-47
2023/03/31 04:45:50;;;;;;;13.50;7.90;;;;;;;6.82;55.57;99832.66;105665;1256;65128;-47
2023/03/31 04:48:22;;;;;;;13.30;8.10;;;;;;;6.90;55.17;99829.69;105739;1254;60443;-47
2023/03/31 04:50:51;;;;;;;11.20;8.00;;;;;;;6.95;54.84;99828.30;105749;1253;60562;-47
2023/03/31 04:53:19;;;;;;;8.20;3.90;;;;;;;6.98;54.67;99827.15;105532;1254;66190;-48
2023/03/31 04:55:48;;;;;;;11.50;7.70;;;;;;;7.00;54.34;99828.06;105528;1252;62331;-48
2023/03/31 04:58:17;;;;;;;13.80;7.70;;;;;;;6.98;54.15;99826.13;105548;1254;65113;-47
2023/03/31 05:00:52;;;;;;;6.50;2.70;;;;;;;6.96;53.89;99817.71;105451;1251;60443;-47
2023/03/31 05:03:21;;;;;;;13.60;7.70;;;;;;;6.97;53.36;99814.69;105442;1254;60542;-47
2023/03/31 05:05:50;;;;;;;10.80;7.70;;;;;;;6.97;53.01;99816.23;105774;1255;65989;-47
2023/03/31 05:08:20;;;;;;;9.50;2.80;;;;;;;7.00;52.72;99813.55;105479;1254;62474;-47
2023/03/31 05:10:53;;;;;;;12.20;7.30;;;;;;;7.03;52.45;99811.66;105600;1254;65049;-47
2023/03/31 05:13:24;;;;;;;13.70;7.10;;;;;;;7.05;52.15;99805.89;105535;1254;60401;-47
2023/03/31 05:15:53;;;;;;;12.60;7.20;;;;;;;7.07;51.80;99805.77;105541;1256;60332;-47
2023/03/31 05:18:22;;;;;;;5.90;2.80;;;;;;;7.06;51.59;99808.25;105864;1256;66725;-48
2023/03/31 05:20:50;;;;;;;12.70;6.90;;;;;;;7.05;51.41;99802.77;105607;1254;62410;-47
2023/03/31 05:23:18;;;;;;;11.00;6.30;;;;;;;7.04;51.40;99799.30;105646;1257;65027;-48
2023/03/31 05:25:47;;;;;;;12.00;7.60;;;;;;;7.04;51.45;99800.08;105661;1256;60445;-50
2023/03/31 05:28:15;;;;;;;10.50;6.80;;;;;;;7.09;51.31;99793.79;105583;1252;60562;-48
2023/03/31 05:30:44;;;;;;;7.80;3.40;;;;;;;7.10;51.27;99787.04;105696;1254;65179;-50
2023/03/31 05:33:13;;;;;;;11.00;3.60;;;;;;;7.13;51.29;99787.67;105471;1254;62596;-49
2023/03/31 05:35:44;;;;;;;6.80;2.60;;;;;;;7.16;51.16;99783.58;105375;1256;65201;-50
2023/03/31 05:38:13;;;;;;;14.90;7.80;;;;;;;7.19;51.21;99777.78;105416;1257;60443;-50
2023/03/31 05:40:43;;;;;;;15.90;9.00;;;;;;;7.24;51.02;99771.88;105314;1253;60517;-48
2023/03/31 05:43:11;;;;;;;16.30;9.90;;;;;;;7.24;50.84;99770.77;105413;1256;66004;-49
2023/03/31 05:45:40;;;;;;;8.40;4.40;;;;;;;7.25;50.79;99771.44;105311;1256;62333;-47
2023/03/31 05:48:09;;;;;;;14.20;8.10;;;;;;;7.26;50.55;99769.42;105478;1254;65485;-48
2023/03/31 05:50:38;;;;;;;11.30;7.10;;;;;;;7.27;50.65;99762.08;105538;1256;60482;-48
2023/03/31 05:53:06;;;;;;;11.40;6.80;;;;;;;7.28;50.77;99753.64;105246;1254;61624;-47
2023/03/31 05:55:35;;;;;;;12.40;7.40;;;;;;;7.25;50.86;99749.93;105565;1257;66250;-47
2023/03/31 05:58:05;;;;;;;8.80;3.70;;;;;;;7.23;50.77;99748.86;105344;1252;62889;-48
2023/03/31 06:00:35;;;;;;;12.50;7.20;;;;;;;7.22;50.77;99750.36;105612;1253;64791;-47
2023/03/31 06:03:07;;;;;;;12.30;6.80;;;;;;;7.22;50.86;99749.67;105357;1254;60475;-47
2023/03/31 06:05:36;;;;;;;11.40;7.50;;;;;;;7.24;51.04;99747.05;105714;1253;60370;-47
2023/03/31 06:08:04;;;;;;;13.50;7.20;;;;;;;7.28;51.09;99744.21;105653;1257;66172;-47
2023/03/31 06:10:34;;;;;;;12.20;7.50;;;;;;;7.31;51.04;99744.27;105578;1254;62662;-48
2023/03/31 06:13:04;;;;;;;13.30;3.90;;;;;;;7.35;51.22;99738.23;105329;1254;65477;-48
2023/03/31 06:15:32;;;;;;;11.70;7.50;;;;;;;7.39;51.28;99734.43;105338;1254;61112;-47
2023/03/31 06:18:01;;;;;;;10.70;3.70;;;;;;;7.42;51.18;99735.43;107291;1253;60530;-47
2023/03/31 06:20:30;;;;;;;11.10;6.80;;;;;;;7.47;51.15;99732.29;105043;1254;66112;-48
2023/03/31 06:22:58;;;;;;;13.30;7.10;;;;;;;7.53;51.04;99733.83;105817;1257;62120;-48
2023/03/31 06:25:27;;;;;;;14.60;6.30;;;;;;;7.60;50.67;99733.00;104975;1254;65230;-48
2023/03/31 06:28:06;;;;;;;10.40;6.40;;;;;;;7.66;50.61;99735.84;104928;1256;60423;-47
2023/03/31 06:30:35;;;;;;;11.10;7.20;;;;;;;7.72;50.65;99734.50;105203;1254;60476;-49
2023/03/31 06:33:03;;;;;;;11.60;6.70;;;;;;;7.79;50.42;99732.88;105806;1254;66381;-49
2023/03/31 06:35:32;;;;;;;9.60;6.50;;;;;;;7.85;49.87;99729.94;105248;1255;62506;-48
2023/03/31 06:38:00;;;;;;;12.50;6.60;;;;;;;7.92;49.48;99729.61;105393;1256;65004;-47
2023/03/31 06:40:29;;;;;;;13.00;7.30;;;;;;;7.97;49.25;99725.54;105008;1254;60450;-47
2023/03/31 06:42:57;;;;;;;14.70;6.60;;;;;;;8.02;48.93;99724.66;106210;1252;60360;-47
2023/03/31 06:45:25;;;;;;;10.50;7.00;;;;;;;8.06;48.45;99729.06;105172;1254;66330;-47
2023/03/31 06:47:54;;;;;;;11.70;6.80;;;;;;;8.09;48.16;99728.65;105046;1254;62682;-48
2023/03/31 06:50:23;;;;;;;15.70;7.80;;;;;;;8.12;48.14;99724.71;105555;1256;65065;-46
2023/03/31 06:52:53;;;;;;;16.70;7.70;;;;;;;8.18;47.85;99719.50;104963;1254;60541;-46
2023/03/31 06:55:22;;;;;;;11.10;6.80;;;;;;;8.24;47.88;99709.95;105135;1254;60463;-46
2023/03/31 06:57:51;;;;;;;15.00;9.00;;;;;;;8.30;47.93;99706.98;105982;1256;66347;-47
2023/03/31 07:00:19;;;;;;;17.30;9.90;;;;;;;8.37;47.64;99703.09;105096;1254;62639;-46
2023/03/31 07:02:54;;;;;;;16.50;10.00;;;;;;;8.45;47.11;99696.73;104956;1257;64727;-46
2023/03/31 07:05:26;;;;;;;16.30;9.60;;;;;;;8.50;46.75;99695.27;104869;1257;60511;-46
2023/03/31 07:07:55;;;;;;;15.10;9.10;;;;;;;8.55;46.13;99693.64;105027;1254;61590;-47
2023/03/31 07:10:25;;;;;;;13.40;9.10;;;;;;;8.59;45.87;99694.17;105675;1252;65176;-47
2023/03/31 07:12:54;;;;;;;14.70;9.00;;;;;;;8.64;45.78;99694.69;105286;1254;62165;-47
2023/03/31 07:15:23;;;;;;;15.90;9.40;;;;;;;8.71;45.98;99696.65;105875;1254;72727;-47
2023/03/31 07:17:52;;;;;;;14.00;8.90;;;;;;;8.79;45.73;99698.42;106886;1256;60553;-47
2023/03/31 07:20:22;;;;;;;16.70;10.00;;;;;;;8.88;45.32;99690.20;105320;1254;60920;-47
2023/03/31 07:22:51;;;;;;;14.60;9.00;;;;;;;8.98;45.14;99689.41;105172;1256;66296;-47
2023/03/31 07:25:19;;;;;;;14.50;8.60;;;;;;;9.08;44.98;99690.45;105050;1254;62378;-47
2023/03/31 07:27:47;;;;;;;15.40;8.90;;;;;;;9.17;44.38;99688.45;105426;1254;64924;-49
2023/03/31 07:30:17;;;;;;;13.20;7.70;;;;;;;9.26;44.45;99683.83;105095;1254;63531;-45
2023/03/31 07:32:49;;;;;;;13.00;7.80;;;;;;;9.35;44.51;99685.30;105178;1254;60437;-46
2023/03/31 07:35:18;;;;;;;11.90;7.60;;;;;;;9.46;44.25;99679.50;105575;1254;65325;-46
2023/03/31 07:37:47;;;;;;;14.90;7.80;;;;;;;9.57;44.20;99681.20;105144;1254;62678;-48
2023/03/31 07:40:20;;;;;;;14.00;7.60;;;;;;;9.66;43.65;99681.42;105978;1254;65281;-47
2023/03/31 07:42:50;;;;;;;14.00;7.80;;;;;;;9.74;43.04;99677.11;105104;1252;60408;-47
2023/03/31 07:45:21;;;;;;;11.80;7.10;;;;;;;9.80;42.32;99670.04;105132;1252;61166;-47
2023/03/31 07:47:49;;;;;;;10.10;7.00;;;;;;;9.85;42.58;99666.84;105988;1253;66103;-62
2023/03/31 07:50:18;;;;;;;11.40;6.70;;;;;;;9.92;42.56;99665.20;105294;1254;62720;-64
2023/03/31 07:52:47;;;;;;;12.60;6.90;;;;;;;9.99;42.20;99662.38;105200;1254;64829;-63
2023/03/31 07:55:16;;;;;;;10.30;6.30;;;;;;;10.07;41.73;99661.58;105173;1257;60463;-63
2023/03/31 07:57:46;;;;;;;11.30;6.80;;;;;;;10.12;41.33;99659.39;105225;1254;60486;-60
2023/03/31 08:00:15;;;;;;;13.60;7.10;;;;;;;10.15;41.05;99659.27;105992;1253;66080;-62
2023/03/31 08:02:46;;;;;;;11.00;7.40;;;;;;;10.19;40.97;99660.63;105392;1256;62564;-65
2023/03/31 08:05:16;;;;;;;12.60;6.90;;;;;;;10.22;40.99;99657.05;105257;1256;64926;-63
2023/03/31 08:07:45;;;;;;;10.30;7.30;;;;;;;10.26;40.98;99655.85;105236;1257;60553;-62
2023/03/31 08:10:20;;;;;;;9.30;6.30;;;;;;;10.27;40.47;99651.69;105155;1254;60460;-60
2023/03/31 08:12:50;;;;;;;12.10;6.20;;;;;;;10.28;39.55;99648.08;105289;1256;66142;-64
2023/03/31 08:15:18;;;;;;;10.60;6.40;;;;;;;10.27;38.93;99644.84;105390;1254;62509;-64
2023/03/31 08:17:48;;;;;;;9.60;5.90;;;;;;;10.26;39.05;99642.72;105220;1256;65033;-63
2023/03/31 08:20:16;;;;;;;9.80;5.60;;;;;;;10.25;38.58;99641.52;105203;1254;61700;-62
2023/03/31 08:22:45;;;;;;;8.90;5.20;;;;;;;10.21;38.39;99639.04;105128;1254;60476;-62
2023/03/31 08:25:13;;;;;;;11.00;6.20;;;;;;;10.18;38.70;99637.00;105232;1254;66163;-63
2023/03/31 08:27:41;;;;;;;11.40;6.40;;;;;;;10.20;39.30;99635.52;105901;1256;62677;-63
2023/03/31 08:30:11;;;;;;;11.00;6.00;;;;;;;10.25;39.31;99631.36;105317;1255;65087;-64
2023/03/31 08:32:42;;;;;;;9.70;6.40;;;;;;;10.34;39.48;99627.42;105487;1257;60364;-62
2023/03/31 08:35:10;;;;;;;9.60;5.30;;;;;;;10.37;39.59;99624.86;105009;1254;60556;-64
2023/03/31 08:37:39;;;;;;;9.90;5.90;;;;;;;10.41;39.40;99623.33;105088;1256;66264;-64
2023/03/31 08:40:17;;;;;;;11.50;6.20;;;;;;;10.43;38.71;99622.21;105103;1256;62603;-64
2023/03/31 08:42:52;;;;;;;10.30;5.50;;;;;;;10.44;38.96;99616.94;104946;1254;65035;-64
2023/03/31 08:45:22;;;;;;;10.30;5.40;;;;;;;10.45;39.27;99610.86;106381;1254;60322;-62
2023/03/31 08:47:57;;;;;;;10.30;5.60;;;;;;;10.47;39.54;99606.09;105889;1259;60520;-61
2023/03/31 08:50:30;;;;;;;9.90;5.70;;;;;;;10.52;39.40;99601.73;104953;1257;397939;-63
2023/03/31 09:05:36;;;;;;;9.00;5.60;;;;;;;10.82;38.79;99598.97;102823;1288;613183;-62
2023/03/31 09:08:34;;;;;;;8.80;5.40;;;;;;;11.06;38.87;99589.94;104449;1263;107865;-61
2023/03/31 09:11:11;;;;;;;9.80;5.90;;;;;;;11.07;39.33;99592.75;104955;1263;59371;-62
2023/03/31 09:13:52;;;;;;;9.10;5.50;;;;;;;11.08;39.41;99595.83;104463;1263;63571;-63
2023/03/31 09:16:25;;;;;;;9.80;5.90;;;;;;;11.07;39.60;99590.73;104620;1266;62360;-61
2023/03/31 09:18:59;;;;;;;12.20;5.60;;;;;;;11.05;39.97;99585.95;104912;1267;64012;-62
2023/03/31 09:21:30;;;;;;;9.20;5.40;;;;;;;11.06;40.27;99585.36;108461;1262;57449;-62
2023/03/31 09:24:15;;;;;;;9.40;5.60;;;;;;;11.07;39.62;99582.63;104803;1264;59224;-62
2023/03/31 09:27:01;;;;;;;11.90;6.10;;;;;;;11.03;39.80;99574.44;104747;1261;64835;-58
2023/03/31 09:29:46;;;;;;;8.60;5.50;;;;;;;11.00;40.11;99570.83;104393;1268;61671;-62
2023/03/31 09:32:24;;;;;;;10.20;5.90;;;;;;;10.98;40.58;99565.02;104508;1262;65058;-60
2023/03/31 09:34:56;;;;;;;10.40;6.00;;;;;;;10.99;40.80;99559.35;104501;1262;59567;-63
2023/03/31 09:37:26;;;;;;;11.20;6.90;;;;;;;10.99;40.89;99556.33;104490;1262;61591;-59
2023/03/31 09:39:54;;;;;;;11.70;6.80;;;;;;;11.01;41.10;99554.21;104679;1265;65386;-59
2023/03/31 09:42:22;;;;;;;9.70;6.20;;;;;;;11.03;40.86;99556.14;104191;1262;62567;-62
2023/03/31 09:44:51;;;;;;;11.90;7.00;;;;;;;11.03;40.61;99557.23;104536;1262;66080;-60
2023/03/31 09:47:22;;;;;;;11.50;6.40;;;;;;;11.01;40.57;99548.98;104235;1263;59838;-62
2023/03/31 09:49:50;;;;;;;11.40;6.60;;;;;;;11.01;40.95;99546.02;104875;1262;59642;-61
2023/03/31 09:52:39;;;;;;;10.90;6.40;;;;;;;11.05;41.13;99541.23;106144;1262;64100;-60
2023/03/31 09:55:19;;;;;;;12.70;6.40;;;;;;;11.10;41.27;99531.05;104354;1267;61442;-60
2023/03/31 09:58:06;;;;;;;11.90;7.30;;;;;;;11.17;41.01;99528.85;104741;1262;64752;-64
2023/03/31 10:00:36;;;;;;;10.70;6.40;;;;;;;11.21;40.51;99520.90;104909;1262;61621;-62
2023/03/31 10:03:08;;;;;;;11.20;7.00;;;;;;;11.24;40.17;99518.14;104983;1264;59614;-62
2023/03/31 10:05:48;;;;;;;11.20;6.90;;;;;;;11.27;40.43;99520.17;104192;1268;65621;-62
2023/03/31 10:08:26;;;;;;;13.50;7.20;;;;;;;11.30;40.60;99520.15;104489;1268;61793;-61
2023/03/31 10:10:55;;;;;;;11.70;7.40;;;;;;;11.33;40.51;99517.24;104384;1262;66665;-60
2023/03/31 10:13:52;;;;;;;11.90;7.50;;;;;;;11.37;40.39;99516.41;106962;1262;61432;-60
2023/03/31 10:16:31;;;;;;;12.20;7.20;;;;;;;11.41;40.24;99515.08;107183;1266;59322;-61
2023/03/31 10:19:19;;;;;;;12.10;7.10;;;;;;;11.51;40.11;99513.08;104341;1266;65215;-61
2023/03/31 10:22:05;;;;;;;12.40;7.10;;;;;;;11.60;40.04;99511.15;104364;1263;62237;-61
2023/03/31 10:24:38;;;;;;;13.40;7.10;;;;;;;11.65;39.74;99510.83;104375;1268;64019;-60
2023/03/31 10:27:27;;;;;;;12.60;7.30;;;;;;;11.68;39.76;99513.13;108423;1262;57873;-61
2023/03/31 10:30:03;;;;;;;11.50;6.80;;;;;;;11.71;39.87;99511.66;108431;1262;57493;-58
2023/03/31 10:32:33;;;;;;;13.00;7.60;;;;;;;11.72;39.90;99517.85;106370;1268;65197;-58
2023/03/31 10:35:07;;;;;;;10.30;6.20;;;;;;;11.73;39.82;99517.12;105202;1263;62618;-58
2023/03/31 10:37:37;;;;;;;10.60;6.60;;;;;;;11.68;39.96;99509.45;105163;1267;65107;-58
2023/03/31 10:40:17;;;;;;;13.20;7.30;;;;;;;11.64;39.81;99502.49;104435;1263;59580;-58
2023/03/31 10:42:46;;;;;;;9.20;6.20;;;;;;;11.62;40.17;99496.02;104595;1262;59731;-57
2023/03/31 10:46:05;;;;;;;11.20;6.00;;;;;;;11.63;40.06;99493.27;104792;1266;65399;-57
2023/03/31 10:48:40;;;;;;;10.90;6.50;;;;;;;11.67;39.36;99494.51;104311;1262;71366;-56
2023/03/31 10:51:14;;;;;;;11.10;6.90;;;;;;;11.68;38.68;99494.39;106065;1266;64742;-57
2023/03/31 10:53:43;;;;;;;10.10;6.80;;;;;;;11.66;38.62;99494.01;104824;1262;59586;-57
2023/03/31 10:56:24;;;;;;;10.80;5.80;;;;;;;11.64;38.78;99489.81;104485;1266;59673;-56
2023/03/31 10:59:29;;;;;;;11.80;6.50;;;;;;;11.64;39.02;99489.84;104398;1268;65083;-56
2023/03/31 11:02:31;;;;;;;10.80;6.10;;;;;;;11.63;38.74;99483.39;104581;1267;61374;-59
2023/03/31 11:05:06;;;;;;;9.90;6.10;;;;;;;11.60;38.38;99482.13;104834;1263;64874;-59
2023/03/31 11:08:03;;;;;;;13.10;6.70;;;;;;;11.58;38.23;99473.71;104274;1264;59851;-58
2023/03/31 11:10:51;;;;;;;11.00;6.70;;;;;;;11.56;38.27;99469.61;104359;1262;59798;-58
2023/03/31 11:14:11;;;;;;;9.00;5.90;;;;;;;11.58;38.52;99464.82;104263;1263;65597;-57
2023/03/31 11:17:00;;;;;;;9.40;6.00;;;;;;;11.62;38.55;99458.57;104260;1262;63877;-57
2023/03/31 11:19:41;;;;;;;10.60;6.20;;;;;;;11.67;38.05;99454.77;104675;1262;65034;-58
2023/03/31 11:22:47;;;;;;;9.70;6.20;;;;;;;11.67;37.69;99448.80;105343;1268;59795;-57
2023/03/31 11:25:38;;;;;;;10.20;6.00;;;;;;;11.67;37.86;99442.98;104434;1262;59626;-55
2023/03/31 11:28:26;;;;;;;12.50;5.90;;;;;;;11.68;37.29;99442.84;104348;1267;65422;-56
2023/03/31 11:31:22;;;;;;;11.00;5.80;;;;;;;11.69;37.38;99447.33;104846;1267;61788;-57
2023/03/31 11:34:26;;;;;;;11.80;6.40;;;;;;;11.73;37.19;99445.09;104815;1266;63766;-57
2023/03/31 11:36:57;;;;;;;10.00;6.20;;;;;;;11.76;36.65;99443.94;104491;1263;59666;-55
2023/03/31 11:39:29;;;;;;;9.80;5.80;;;;;;;11.76;36.64;99444.11;104866;1263;59664;-56
2023/03/31 11:42:02;;;;;;;9.00;5.50;;;;;;;11.77;36.75;99446.59;104642;1266;65430;-56
2023/03/31 11:44:37;;;;;;;9.90;5.70;;;;;;;11.79;36.97;99440.41;104529;1263;62836;-57
2023/03/31 11:47:08;;;;;;;10.30;5.60;;;;;;;11.85;36.98;99436.95;104484;1267;64047;-57
2023/03/31 11:49:38;;;;;;;11.20;6.10;;;;;;;11.91;37.08;99435.54;104370;1263;59569;-57
2023/03/31 11:52:17;;;;;;;9.60;6.00;;;;;;;11.96;36.93;99434.02;104782;1262;59703;-56
2023/03/31 11:54:54;;;;;;;8.90;5.70;;;;;;;12.01;37.26;99429.26;104293;1268;65417;-58
2023/03/31 11:57:35;;;;;;;9.30;6.00;;;;;;;12.08;36.76;99422.77;104371;1268;62765;-57
2023/03/31 12:00:40;;;;;;;11.30;6.20;;;;;;;12.10;36.72;99417.48;104321;1262;64777;-57
2023/03/31 12:03:12;;;;;;;8.20;5.40;;;;;;;12.14;36.75;99411.13;104048;1269;60793;-57
2023/03/31 12:05:44;;;;;;;8.70;4.90;;;;;;;12.20;35.95;99404.84;104351;1263;59711;-58
2023/03/31 12:08:34;;;;;;;10.50;5.80;;;;;;;12.17;35.96;99400.90;104652;1268;65148;-59
2023/03/31 12:11:08;;;;;;;12.50;6.50;;;;;;;12.15;36.11;99397.65;104761;1264;62694;-58
2023/03/31 12:13:40;;;;;;;11.60;6.50;;;;;;;12.18;36.33;99392.79;104637;1262;66717;-57
2023/03/31 12:16:16;;;;;;;10.50;5.80;;;;;;;12.19;36.11;99389.34;104730;1267;59737;-58